sensor_id;sensor_type;location;lat;lon;timestamp;temperature;humidity
67870;DHT22;54673;52.262;6.830;2022-11-15T00:01:37;16.70;54.30
67870;DHT22;54673;52.262;6.830;2022-11-15T00:04:04;16.70;54.30
67870;DHT22;54673;52.262;6.830;2022-11-15T00:06:29;16.70;54.30
67870;DHT22;54673;52.262;6.830;2022-11-15T00:08:58;16.70;54.30
67870;DHT22;54673;52.262;6.830;2022-11-15T00:11:24;16.70;54.40
67870;DHT22;54673;52.262;6.830;2022-11-15T00:13:50;16.70;54.30
67870;DHT22;54673;52.262;6.830;2022-11-15T00:16:17;16.70;54.40
67870;DHT22;54673;52.262;6.830;2022-11-15T00:18:42;16.70;54.40
67870;DHT22;54673;52.262;6.830;2022-11-15T00:21:11;16.70;54.40
67870;DHT22;54673;52.262;6.830;2022-11-15T00:23:37;16.70;54.30
67870;DHT22;54673;52.262;6.830;2022-11-15T00:26:03;16.70;55.30
67870;DHT22;54673;52.262;6.830;2022-11-15T00:28:29;16.60;54.40
67870;DHT22;54673;52.262;6.830;2022-11-15T00:31:06;16.70;54.40
67870;DHT22;54673;52.262;6.830;2022-11-15T00:33:33;16.60;54.40
67870;DHT22;54673;52.262;6.830;2022-11-15T00:36:03;16.60;54.40
67870;DHT22;54673;52.262;6.830;2022-11-15T00:38:34;16.70;54.50
67870;DHT22;54673;52.262;6.830;2022-11-15T00:41:00;16.70;54.60
67870;DHT22;54673;52.262;6.830;2022-11-15T00:43:26;16.60;54.50
67870;DHT22;54673;52.262;6.830;2022-11-15T00:45:53;16.70;54.50
67870;DHT22;54673;52.262;6.830;2022-11-15T00:48:19;16.60;54.50
67870;DHT22;54673;52.262;6.830;2022-11-15T00:50:44;16.60;54.40
67870;DHT22;54673;52.262;6.830;2022-11-15T00:53:10;16.60;54.50
67870;DHT22;54673;52.262;6.830;2022-11-15T00:55:36;16.60;54.60
67870;DHT22;54673;52.262;6.830;2022-11-15T00:58:01;16.60;54.50
67870;DHT22;54673;52.262;6.830;2022-11-15T01:00:27;16.60;54.50
67870;DHT22;54673;52.262;6.830;2022-11-15T01:02:53;16.60;54.50
67870;DHT22;54673;52.262;6.830;2022-11-15T01:05:18;16.60;54.50
67870;DHT22;54673;52.262;6.830;2022-11-15T01:07:44;16.60;54.50
67870;DHT22;54673;52.262;6.830;2022-11-15T01:10:09;16.60;54.50
67870;DHT22;54673;52.262;6.830;2022-11-15T01:12:35;16.60;54.60
67870;DHT22;54673;52.262;6.830;2022-11-15T01:15:01;16.60;54.60
67870;DHT22;54673;52.262;6.830;2022-11-15T01:17:26;16.60;54.60
67870;DHT22;54673;52.262;6.830;2022-11-15T01:19:52;16.60;54.70
67870;DHT22;54673;52.262;6.830;2022-11-15T01:22:18;16.60;54.60
67870;DHT22;54673;52.262;6.830;2022-11-15T01:24:43;16.60;54.70
67870;DHT22;54673;52.262;6.830;2022-11-15T01:27:09;16.60;54.70
67870;DHT22;54673;52.262;6.830;2022-11-15T01:29:35;16.60;54.70
67870;DHT22;54673;52.262;6.830;2022-11-15T01:32:00;16.60;54.70
67870;DHT22;54673;52.262;6.830;2022-11-15T01:34:26;16.50;54.70
67870;DHT22;54673;52.262;6.830;2022-11-15T01:36:52;16.60;54.80
67870;DHT22;54673;52.262;6.830;2022-11-15T01:39:17;16.60;54.70
67870;DHT22;54673;52.262;6.830;2022-11-15T01:41:43;16.50;54.70
67870;DHT22;54673;52.262;6.830;2022-11-15T01:46:57;16.60;54.70
67870;DHT22;54673;52.262;6.830;2022-11-15T01:49:24;16.60;54.80
67870;DHT22;54673;52.262;6.830;2022-11-15T01:51:50;16.50;55.60
67870;DHT22;54673;52.262;6.830;2022-11-15T01:54:20;16.50;54.70
67870;DHT22;54673;52.262;6.830;2022-11-15T01:56:53;16.50;54.70
67870;DHT22;54673;52.262;6.830;2022-11-15T01:59:21;16.50;54.70
67870;DHT22;54673;52.262;6.830;2022-11-15T02:01:47;16.50;54.80
67870;DHT22;54673;52.262;6.830;2022-11-15T02:04:19;16.50;54.80
67870;DHT22;54673;52.262;6.830;2022-11-15T02:06:46;16.50;54.80
67870;DHT22;54673;52.262;6.830;2022-11-15T02:09:14;16.50;54.80
67870;DHT22;54673;52.262;6.830;2022-11-15T02:11:39;16.50;54.80
67870;DHT22;54673;52.262;6.830;2022-11-15T02:14:06;16.50;54.80
67870;DHT22;54673;52.262;6.830;2022-11-15T02:16:37;16.50;54.80
67870;DHT22;54673;52.262;6.830;2022-11-15T02:22:16;16.50;55.00
67870;DHT22;54673;52.262;6.830;2022-11-15T02:30:29;16.50;55.00
67870;DHT22;54673;52.262;6.830;2022-11-15T02:39:03;16.50;55.10
67870;DHT22;54673;52.262;6.830;2022-11-15T02:41:39;16.50;55.00
67870;DHT22;54673;52.262;6.830;2022-11-15T02:44:17;16.50;55.10
67870;DHT22;54673;52.262;6.830;2022-11-15T02:46:59;16.50;55.10
67870;DHT22;54673;52.262;6.830;2022-11-15T02:49:41;16.50;55.10
67870;DHT22;54673;52.262;6.830;2022-11-15T02:52:07;16.50;55.20
67870;DHT22;54673;52.262;6.830;2022-11-15T02:54:34;16.50;55.00
67870;DHT22;54673;52.262;6.830;2022-11-15T02:57:12;16.40;55.00
67870;DHT22;54673;52.262;6.830;2022-11-15T03:00:03;16.50;55.10
67870;DHT22;54673;52.262;6.830;2022-11-15T03:08:32;16.50;55.10
67870;DHT22;54673;52.262;6.830;2022-11-15T03:11:15;16.50;55.10
67870;DHT22;54673;52.262;6.830;2022-11-15T03:16:38;16.40;55.10
67870;DHT22;54673;52.262;6.830;2022-11-15T03:21:51;16.40;55.10
67870;DHT22;54673;52.262;6.830;2022-11-15T03:24:19;16.40;55.10
67870;DHT22;54673;52.262;6.830;2022-11-15T03:26:48;16.40;55.10
67870;DHT22;54673;52.262;6.830;2022-11-15T03:29:19;16.40;55.10
67870;DHT22;54673;52.262;6.830;2022-11-15T03:31:51;16.40;55.10
67870;DHT22;54673;52.262;6.830;2022-11-15T03:34:34;16.50;55.20
67870;DHT22;54673;52.262;6.830;2022-11-15T03:37:04;16.40;55.20
67870;DHT22;54673;52.262;6.830;2022-11-15T03:39:30;16.40;55.20
67870;DHT22;54673;52.262;6.830;2022-11-15T03:42:18;16.40;55.30
67870;DHT22;54673;52.262;6.830;2022-11-15T03:45:13;16.40;55.30
67870;DHT22;54673;52.262;6.830;2022-11-15T03:47:39;16.40;55.30
67870;DHT22;54673;52.262;6.830;2022-11-15T03:50:12;16.40;55.30
67870;DHT22;54673;52.262;6.830;2022-11-15T03:52:40;16.40;55.30
67870;DHT22;54673;52.262;6.830;2022-11-15T03:55:08;16.40;55.30
67870;DHT22;54673;52.262;6.830;2022-11-15T03:57:35;16.40;55.30
67870;DHT22;54673;52.262;6.830;2022-11-15T04:00:01;16.40;55.30
67870;DHT22;54673;52.262;6.830;2022-11-15T04:02:26;16.40;55.30
67870;DHT22;54673;52.262;6.830;2022-11-15T04:04:53;16.40;55.30
67870;DHT22;54673;52.262;6.830;2022-11-15T04:07:19;16.40;55.40
67870;DHT22;54673;52.262;6.830;2022-11-15T04:09:44;16.40;56.30
67870;DHT22;54673;52.262;6.830;2022-11-15T04:12:29;16.40;55.40
67870;DHT22;54673;52.262;6.830;2022-11-15T04:20:03;16.40;55.30
67870;DHT22;54673;52.262;6.830;2022-11-15T04:22:47;16.40;55.60
67870;DHT22;54673;52.262;6.830;2022-11-15T04:25:32;16.40;55.60
67870;DHT22;54673;52.262;6.830;2022-11-15T04:27:57;16.40;55.50
67870;DHT22;54673;52.262;6.830;2022-11-15T04:30:23;16.40;55.50
67870;DHT22;54673;52.262;6.830;2022-11-15T04:32:48;16.40;55.60
67870;DHT22;54673;52.262;6.830;2022-11-15T04:35:14;16.40;55.60
67870;DHT22;54673;52.262;6.830;2022-11-15T04:37:40;16.40;55.60
67870;DHT22;54673;52.262;6.830;2022-11-15T04:40:06;16.40;55.60
67870;DHT22;54673;52.262;6.830;2022-11-15T04:42:32;16.40;55.60
67870;DHT22;54673;52.262;6.830;2022-11-15T04:44:57;16.40;55.60
67870;DHT22;54673;52.262;6.830;2022-11-15T04:47:23;16.40;55.70
67870;DHT22;54673;52.262;6.830;2022-11-15T04:49:48;16.40;55.70
67870;DHT22;54673;52.262;6.830;2022-11-15T04:52:14;16.40;55.70
67870;DHT22;54673;52.262;6.830;2022-11-15T04:54:39;16.40;55.70
67870;DHT22;54673;52.262;6.830;2022-11-15T04:57:07;16.40;55.70
67870;DHT22;54673;52.262;6.830;2022-11-15T04:59:33;16.40;55.80
67870;DHT22;54673;52.262;6.830;2022-11-15T05:01:58;16.40;55.60
67870;DHT22;54673;52.262;6.830;2022-11-15T05:04:24;16.40;55.70
67870;DHT22;54673;52.262;6.830;2022-11-15T05:06:50;16.30;55.60
67870;DHT22;54673;52.262;6.830;2022-11-15T05:09:18;16.40;55.70
67870;DHT22;54673;52.262;6.830;2022-11-15T05:11:44;16.30;55.60
67870;DHT22;54673;52.262;6.830;2022-11-15T05:14:10;16.40;55.70
67870;DHT22;54673;52.262;6.830;2022-11-15T05:16:36;16.40;55.70
67870;DHT22;54673;52.262;6.830;2022-11-15T05:19:02;16.40;55.70
67870;DHT22;54673;52.262;6.830;2022-11-15T05:21:28;16.40;55.90
67870;DHT22;54673;52.262;6.830;2022-11-15T05:23:54;16.40;55.80
67870;DHT22;54673;52.262;6.830;2022-11-15T05:26:19;16.40;55.90
67870;DHT22;54673;52.262;6.830;2022-11-15T05:28:45;16.40;55.90
67870;DHT22;54673;52.262;6.830;2022-11-15T05:31:14;16.40;55.90
67870;DHT22;54673;52.262;6.830;2022-11-15T05:33:40;16.40;55.90
67870;DHT22;54673;52.262;6.830;2022-11-15T05:36:31;16.40;55.90
67870;DHT22;54673;52.262;6.830;2022-11-15T05:38:57;16.40;55.90
67870;DHT22;54673;52.262;6.830;2022-11-15T05:41:29;16.30;55.80
67870;DHT22;54673;52.262;6.830;2022-11-15T05:43:56;16.40;55.90
67870;DHT22;54673;52.262;6.830;2022-11-15T05:46:22;16.40;55.90
67870;DHT22;54673;52.262;6.830;2022-11-15T05:48:50;16.30;55.80
67870;DHT22;54673;52.262;6.830;2022-11-15T05:51:18;16.40;56.00
67870;DHT22;54673;52.262;6.830;2022-11-15T05:53:46;16.30;55.80
67870;DHT22;54673;52.262;6.830;2022-11-15T05:56:12;16.40;55.90
67870;DHT22;54673;52.262;6.830;2022-11-15T05:58:38;16.30;55.90
67870;DHT22;54673;52.262;6.830;2022-11-15T06:01:04;16.40;55.90
67870;DHT22;54673;52.262;6.830;2022-11-15T06:03:30;16.30;55.90
67870;DHT22;54673;52.262;6.830;2022-11-15T06:05:56;16.30;55.90
67870;DHT22;54673;52.262;6.830;2022-11-15T06:08:22;16.30;55.90
67870;DHT22;54673;52.262;6.830;2022-11-15T06:10:48;16.30;55.90
67870;DHT22;54673;52.262;6.830;2022-11-15T06:13:13;16.30;56.10
67870;DHT22;54673;52.262;6.830;2022-11-15T06:15:39;16.30;56.00
67870;DHT22;54673;52.262;6.830;2022-11-15T06:18:05;16.30;56.10
67870;DHT22;54673;52.262;6.830;2022-11-15T06:20:30;16.30;56.10
67870;DHT22;54673;52.262;6.830;2022-11-15T06:23:00;16.30;56.20
67870;DHT22;54673;52.262;6.830;2022-11-15T06:25:27;16.30;56.10
67870;DHT22;54673;52.262;6.830;2022-11-15T06:27:55;16.30;56.20
67870;DHT22;54673;52.262;6.830;2022-11-15T06:30:21;16.30;56.10
67870;DHT22;54673;52.262;6.830;2022-11-15T06:32:47;16.30;56.20
67870;DHT22;54673;52.262;6.830;2022-11-15T06:35:13;16.30;56.20
67870;DHT22;54673;52.262;6.830;2022-11-15T06:37:39;16.30;56.20
67870;DHT22;54673;52.262;6.830;2022-11-15T06:40:05;16.30;56.20
67870;DHT22;54673;52.262;6.830;2022-11-15T06:42:31;16.30;56.20
67870;DHT22;54673;52.262;6.830;2022-11-15T06:44:57;16.30;56.30
67870;DHT22;54673;52.262;6.830;2022-11-15T06:47:23;16.30;56.30
67870;DHT22;54673;52.262;6.830;2022-11-15T06:49:48;16.30;56.30
67870;DHT22;54673;52.262;6.830;2022-11-15T06:52:14;16.30;56.20
67870;DHT22;54673;52.262;6.830;2022-11-15T06:54:39;16.30;56.20
67870;DHT22;54673;52.262;6.830;2022-11-15T06:57:05;16.30;56.20
67870;DHT22;54673;52.262;6.830;2022-11-15T06:59:31;16.30;56.20
67870;DHT22;54673;52.262;6.830;2022-11-15T07:01:56;16.30;56.30
67870;DHT22;54673;52.262;6.830;2022-11-15T07:04:22;16.30;56.30
67870;DHT22;54673;52.262;6.830;2022-11-15T07:06:48;16.30;56.30
67870;DHT22;54673;52.262;6.830;2022-11-15T07:09:14;16.30;56.40
67870;DHT22;54673;52.262;6.830;2022-11-15T07:11:39;16.30;56.20
67870;DHT22;54673;52.262;6.830;2022-11-15T07:14:05;16.30;56.30
67870;DHT22;54673;52.262;6.830;2022-11-15T07:16:30;16.30;56.30
67870;DHT22;54673;52.262;6.830;2022-11-15T07:18:56;16.30;56.30
67870;DHT22;54673;52.262;6.830;2022-11-15T07:21:21;16.30;56.40
67870;DHT22;54673;52.262;6.830;2022-11-15T07:23:47;16.30;56.40
67870;DHT22;54673;52.262;6.830;2022-11-15T07:26:12;16.30;56.40
67870;DHT22;54673;52.262;6.830;2022-11-15T07:28:38;16.30;56.50
67870;DHT22;54673;52.262;6.830;2022-11-15T07:31:05;16.30;56.40
67870;DHT22;54673;52.262;6.830;2022-11-15T07:33:31;16.30;56.50
67870;DHT22;54673;52.262;6.830;2022-11-15T07:36:01;16.30;56.50
67870;DHT22;54673;52.262;6.830;2022-11-15T07:38:28;16.30;56.50
67870;DHT22;54673;52.262;6.830;2022-11-15T07:41:04;16.30;56.50
67870;DHT22;54673;52.262;6.830;2022-11-15T07:43:30;16.30;56.50
67870;DHT22;54673;52.262;6.830;2022-11-15T07:45:58;16.30;56.50
67870;DHT22;54673;52.262;6.830;2022-11-15T07:48:23;16.30;56.60
67870;DHT22;54673;52.262;6.830;2022-11-15T07:50:50;16.30;56.40
67870;DHT22;54673;52.262;6.830;2022-11-15T07:53:15;16.30;56.40
67870;DHT22;54673;52.262;6.830;2022-11-15T07:55:41;16.30;56.50
67870;DHT22;54673;52.262;6.830;2022-11-15T07:58:09;16.40;56.60
67870;DHT22;54673;52.262;6.830;2022-11-15T08:00:36;16.40;56.60
67870;DHT22;54673;52.262;6.830;2022-11-15T08:03:03;16.30;56.60
67870;DHT22;54673;52.262;6.830;2022-11-15T08:05:28;16.40;56.60
67870;DHT22;54673;52.262;6.830;2022-11-15T08:07:57;16.40;56.60
67870;DHT22;54673;52.262;6.830;2022-11-15T08:10:23;16.30;56.60
67870;DHT22;54673;52.262;6.830;2022-11-15T08:13:03;16.40;56.60
67870;DHT22;54673;52.262;6.830;2022-11-15T08:15:30;16.40;56.60
67870;DHT22;54673;52.262;6.830;2022-11-15T08:18:00;16.40;56.50
67870;DHT22;54673;52.262;6.830;2022-11-15T08:20:27;16.40;56.80
67870;DHT22;54673;52.262;6.830;2022-11-15T08:22:57;16.40;56.80
67870;DHT22;54673;52.262;6.830;2022-11-15T08:25:23;16.40;56.80
67870;DHT22;54673;52.262;6.830;2022-11-15T08:27:54;16.40;56.90
67870;DHT22;54673;52.262;6.830;2022-11-15T08:30:21;16.40;56.80
67870;DHT22;54673;52.262;6.830;2022-11-15T08:32:47;16.40;57.10
67870;DHT22;54673;52.262;6.830;2022-11-15T08:35:13;16.40;57.00
67870;DHT22;54673;52.262;6.830;2022-11-15T08:37:38;16.40;57.20
67870;DHT22;54673;52.262;6.830;2022-11-15T08:40:05;16.40;57.10
67870;DHT22;54673;52.262;6.830;2022-11-15T08:42:31;16.40;57.00
67870;DHT22;54673;52.262;6.830;2022-11-15T08:44:56;16.40;57.20
67870;DHT22;54673;52.262;6.830;2022-11-15T08:47:22;16.40;57.10
67870;DHT22;54673;52.262;6.830;2022-11-15T08:49:47;16.40;57.10
67870;DHT22;54673;52.262;6.830;2022-11-15T08:52:14;16.40;57.40
67870;DHT22;54673;52.262;6.830;2022-11-15T08:54:39;16.50;57.40
67870;DHT22;54673;52.262;6.830;2022-11-15T08:57:05;16.40;57.40
67870;DHT22;54673;52.262;6.830;2022-11-15T08:59:31;16.40;57.40
67870;DHT22;54673;52.262;6.830;2022-11-15T09:01:56;16.50;57.60
67870;DHT22;54673;52.262;6.830;2022-11-15T09:04:22;16.50;57.60
67870;DHT22;54673;52.262;6.830;2022-11-15T09:06:48;16.40;57.40
67870;DHT22;54673;52.262;6.830;2022-11-15T09:09:14;16.40;57.40
67870;DHT22;54673;52.262;6.830;2022-11-15T09:11:39;16.50;57.60
67870;DHT22;54673;52.262;6.830;2022-11-15T09:14:05;16.50;57.60
67870;DHT22;54673;52.262;6.830;2022-11-15T09:16:31;16.50;57.50
67870;DHT22;54673;52.262;6.830;2022-11-15T09:18:56;16.50;57.40
67870;DHT22;54673;52.262;6.830;2022-11-15T09:21:22;16.50;57.40
67870;DHT22;54673;52.262;6.830;2022-11-15T09:23:50;16.50;57.30
67870;DHT22;54673;52.262;6.830;2022-11-15T09:26:17;16.50;57.40
67870;DHT22;54673;52.262;6.830;2022-11-15T09:28:43;16.50;57.60
67870;DHT22;54673;52.262;6.830;2022-11-15T09:31:09;16.50;57.50
67870;DHT22;54673;52.262;6.830;2022-11-15T09:33:35;16.50;57.50
67870;DHT22;54673;52.262;6.830;2022-11-15T09:36:04;16.50;57.70
67870;DHT22;54673;52.262;6.830;2022-11-15T09:38:31;16.50;57.60
67870;DHT22;54673;52.262;6.830;2022-11-15T09:49:13;16.50;57.60
67870;DHT22;54673;52.262;6.830;2022-11-15T09:51:45;16.50;57.60
67870;DHT22;54673;52.262;6.830;2022-11-15T09:54:32;16.60;57.70
67870;DHT22;54673;52.262;6.830;2022-11-15T09:57:14;16.70;57.80
67870;DHT22;54673;52.262;6.830;2022-11-15T10:00:07;16.50;81.10
67870;DHT22;54673;52.262;6.830;2022-11-15T10:02:50;16.80;59.90
67870;DHT22;54673;52.262;6.830;2022-11-15T10:05:23;17.00;60.00
67870;DHT22;54673;52.262;6.830;2022-11-15T10:08:03;17.20;60.70
67870;DHT22;54673;52.262;6.830;2022-11-15T10:10:44;17.30;61.20
67870;DHT22;54673;52.262;6.830;2022-11-15T10:13:28;17.10;59.80
67870;DHT22;54673;52.262;6.830;2022-11-15T10:21:17;17.50;60.10
67870;DHT22;54673;52.262;6.830;2022-11-15T10:23:45;17.50;61.40
67870;DHT22;54673;52.262;6.830;2022-11-15T10:26:15;17.90;60.20
67870;DHT22;54673;52.262;6.830;2022-11-15T10:28:40;17.70;61.00
67870;DHT22;54673;52.262;6.830;2022-11-15T10:31:23;17.70;59.90
67870;DHT22;54673;52.262;6.830;2022-11-15T10:33:50;17.80;61.70
67870;DHT22;54673;52.262;6.830;2022-11-15T10:36:19;17.80;60.30
67870;DHT22;54673;52.262;6.830;2022-11-15T10:41:15;18.00;61.60
67870;DHT22;54673;52.262;6.830;2022-11-15T10:43:41;18.10;60.90
67870;DHT22;54673;52.262;6.830;2022-11-15T10:46:20;18.20;60.80
67870;DHT22;54673;52.262;6.830;2022-11-15T10:48:46;18.30;61.90
67870;DHT22;54673;52.262;6.830;2022-11-15T10:51:26;18.40;60.60
67870;DHT22;54673;52.262;6.830;2022-11-15T10:53:59;18.30;62.00
67870;DHT22;54673;52.262;6.830;2022-11-15T10:56:26;18.50;62.00
67870;DHT22;54673;52.262;6.830;2022-11-15T10:59:01;18.30;62.00
67870;DHT22;54673;52.262;6.830;2022-11-15T11:01:28;18.50;62.00
67870;DHT22;54673;52.262;6.830;2022-11-15T11:04:06;18.60;61.10
67870;DHT22;54673;52.262;6.830;2022-11-15T11:06:57;18.50;60.40
67870;DHT22;54673;52.262;6.830;2022-11-15T11:09:37;18.50;60.80
67870;DHT22;54673;52.262;6.830;2022-11-15T11:12:05;18.40;60.50
67870;DHT22;54673;52.262;6.830;2022-11-15T11:14:33;18.60;61.30
67870;DHT22;54673;52.262;6.830;2022-11-15T11:22:40;18.70;59.30
67870;DHT22;54673;52.262;6.830;2022-11-15T11:25:30;18.80;62.50
67870;DHT22;54673;52.262;6.830;2022-11-15T11:34:17;18.90;61.20
67870;DHT22;54673;52.262;6.830;2022-11-15T11:39:52;19.20;62.80
67870;DHT22;54673;52.262;6.830;2022-11-15T11:45:19;19.00;59.60
67870;DHT22;54673;52.262;6.830;2022-11-15T11:47:51;19.10;61.70
67870;DHT22;54673;52.262;6.830;2022-11-15T11:50:21;19.50;62.60
67870;DHT22;54673;52.262;6.830;2022-11-15T11:53:39;19.10;62.10
67870;DHT22;54673;52.262;6.830;2022-11-15T11:56:16;19.20;61.60
67870;DHT22;54673;52.262;6.830;2022-11-15T11:58:45;19.30;63.20
67870;DHT22;54673;52.262;6.830;2022-11-15T12:01:20;19.30;62.90
67870;DHT22;54673;52.262;6.830;2022-11-15T12:03:48;19.20;63.20
67870;DHT22;54673;52.262;6.830;2022-11-15T12:06:35;19.30;61.90
67870;DHT22;54673;52.262;6.830;2022-11-15T12:09:30;19.30;62.40
67870;DHT22;54673;52.262;6.830;2022-11-15T12:14:56;19.40;60.90
67870;DHT22;54673;52.262;6.830;2022-11-15T12:17:28;19.30;63.60
67870;DHT22;54673;52.262;6.830;2022-11-15T12:20:05;19.40;62.80
67870;DHT22;54673;52.262;6.830;2022-11-15T12:22:39;19.40;61.90
67870;DHT22;54673;52.262;6.830;2022-11-15T12:25:32;19.40;62.30
67870;DHT22;54673;52.262;6.830;2022-11-15T12:31:03;19.60;62.70
67870;DHT22;54673;52.262;6.830;2022-11-15T12:36:04;19.40;62.30
67870;DHT22;54673;52.262;6.830;2022-11-15T12:38:56;19.40;63.20
67870;DHT22;54673;52.262;6.830;2022-11-15T12:41:27;19.40;63.10
67870;DHT22;54673;52.262;6.830;2022-11-15T12:43:54;19.60;64.10
67870;DHT22;54673;52.262;6.830;2022-11-15T12:54:49;18.20;62.70
67870;DHT22;54673;52.262;6.830;2022-11-15T13:02:35;19.10;65.30
67870;DHT22;54673;52.262;6.830;2022-11-15T13:10:34;19.00;64.10
67870;DHT22;54673;52.262;6.830;2022-11-15T13:13:09;18.70;64.60
67870;DHT22;54673;52.262;6.830;2022-11-15T13:18:34;19.00;65.80
67870;DHT22;54673;52.262;6.830;2022-11-15T13:21:01;18.80;64.80
67870;DHT22;54673;52.262;6.830;2022-11-15T13:23:27;18.80;65.10
67870;DHT22;54673;52.262;6.830;2022-11-15T13:26:14;19.10;64.80
67870;DHT22;54673;52.262;6.830;2022-11-15T13:28:45;18.90;64.80
67870;DHT22;54673;52.262;6.830;2022-11-15T13:33:53;19.00;66.10
67870;DHT22;54673;52.262;6.830;2022-11-15T13:36:23;19.00;65.10
67870;DHT22;54673;52.262;6.830;2022-11-15T13:39:12;19.10;65.20
67870;DHT22;54673;52.262;6.830;2022-11-15T13:41:48;19.30;65.70
67870;DHT22;54673;52.262;6.830;2022-11-15T13:44:28;19.40;65.80
67870;DHT22;54673;52.262;6.830;2022-11-15T13:49:34;19.20;64.30
67870;DHT22;54673;52.262;6.830;2022-11-15T13:52:03;19.20;64.20
67870;DHT22;54673;52.262;6.830;2022-11-15T13:54:40;19.60;65.40
67870;DHT22;54673;52.262;6.830;2022-11-15T13:59:54;19.30;63.80
67870;DHT22;54673;52.262;6.830;2022-11-15T14:02:31;19.40;63.80
67870;DHT22;54673;52.262;6.830;2022-11-15T14:05:20;19.70;65.40
67870;DHT22;54673;52.262;6.830;2022-11-15T14:08:23;19.30;64.40
67870;DHT22;54673;52.262;6.830;2022-11-15T14:10:48;19.20;65.10
67870;DHT22;54673;52.262;6.830;2022-11-15T14:13:28;19.50;63.70
67870;DHT22;54673;52.262;6.830;2022-11-15T14:15:54;19.40;65.50
67870;DHT22;54673;52.262;6.830;2022-11-15T14:21:10;19.50;64.20
67870;DHT22;54673;52.262;6.830;2022-11-15T14:23:36;19.60;64.20
67870;DHT22;54673;52.262;6.830;2022-11-15T14:26:02;19.70;64.70
67870;DHT22;54673;52.262;6.830;2022-11-15T14:28:33;19.60;63.70
67870;DHT22;54673;52.262;6.830;2022-11-15T14:31:10;19.50;64.90
67870;DHT22;54673;52.262;6.830;2022-11-15T14:33:37;19.60;65.00
67870;DHT22;54673;52.262;6.830;2022-11-15T14:36:15;19.60;64.30
67870;DHT22;54673;52.262;6.830;2022-11-15T14:38:41;19.60;64.00
67870;DHT22;54673;52.262;6.830;2022-11-15T14:41:19;19.70;63.90
67870;DHT22;54673;52.262;6.830;2022-11-15T14:43:45;19.60;65.20
67870;DHT22;54673;52.262;6.830;2022-11-15T14:46:10;19.90;64.40
67870;DHT22;54673;52.262;6.830;2022-11-15T14:48:36;19.90;64.30
67870;DHT22;54673;52.262;6.830;2022-11-15T14:51:02;19.70;64.00
67870;DHT22;54673;52.262;6.830;2022-11-15T14:53:27;19.70;64.20
67870;DHT22;54673;52.262;6.830;2022-11-15T14:55:53;19.70;64.50
67870;DHT22;54673;52.262;6.830;2022-11-15T14:58:18;20.00;64.70
67870;DHT22;54673;52.262;6.830;2022-11-15T15:00:44;19.80;64.70
67870;DHT22;54673;52.262;6.830;2022-11-15T15:03:10;20.10;65.50
67870;DHT22;54673;52.262;6.830;2022-11-15T15:05:41;19.80;65.50
67870;DHT22;54673;52.262;6.830;2022-11-15T15:08:08;19.80;67.50
67870;DHT22;54673;52.262;6.830;2022-11-15T15:10:42;19.80;65.80
67870;DHT22;54673;52.262;6.830;2022-11-15T15:13:22;19.80;66.60
67870;DHT22;54673;52.262;6.830;2022-11-15T15:15:49;19.80;67.00
67870;DHT22;54673;52.262;6.830;2022-11-15T15:18:16;19.80;66.40
67870;DHT22;54673;52.262;6.830;2022-11-15T15:20:43;20.10;66.40
67870;DHT22;54673;52.262;6.830;2022-11-15T15:23:19;20.00;66.80
67870;DHT22;54673;52.262;6.830;2022-11-15T15:25:46;19.80;67.80
67870;DHT22;54673;52.262;6.830;2022-11-15T15:28:14;20.20;67.50
67870;DHT22;54673;52.262;6.830;2022-11-15T15:30:40;19.90;67.20
67870;DHT22;54673;52.262;6.830;2022-11-15T15:33:06;20.20;67.20
67870;DHT22;54673;52.262;6.830;2022-11-15T15:35:33;19.90;67.20
67870;DHT22;54673;52.262;6.830;2022-11-15T15:38:00;19.90;68.00
67870;DHT22;54673;52.262;6.830;2022-11-15T15:40:28;20.00;67.50
67870;DHT22;54673;52.262;6.830;2022-11-15T15:42:54;19.80;68.20
67870;DHT22;54673;52.262;6.830;2022-11-15T15:45:20;19.90;67.80
67870;DHT22;54673;52.262;6.830;2022-11-15T15:47:46;20.20;66.90
67870;DHT22;54673;52.262;6.830;2022-11-15T15:50:28;20.10;66.10
67870;DHT22;54673;52.262;6.830;2022-11-15T15:52:56;19.80;65.80
67870;DHT22;54673;52.262;6.830;2022-11-15T15:55:22;19.70;67.00
67870;DHT22;54673;52.262;6.830;2022-11-15T15:57:48;19.90;66.30
67870;DHT22;54673;52.262;6.830;2022-11-15T16:00:14;19.60;66.40
67870;DHT22;54673;52.262;6.830;2022-11-15T16:02:40;19.60;66.80
67870;DHT22;54673;52.262;6.830;2022-11-15T16:05:07;19.60;67.20
67870;DHT22;54673;52.262;6.830;2022-11-15T16:07:33;19.30;67.40
67870;DHT22;54673;52.262;6.830;2022-11-15T16:09:59;19.60;67.20
67870;DHT22;54673;52.262;6.830;2022-11-15T16:12:33;19.60;66.30
67870;DHT22;54673;52.262;6.830;2022-11-15T16:14:59;19.20;68.70
67870;DHT22;54673;52.262;6.830;2022-11-15T16:17:28;19.20;68.10
67870;DHT22;54673;52.262;6.830;2022-11-15T16:19:55;19.40;68.60
67870;DHT22;54673;52.262;6.830;2022-11-15T16:22:21;19.00;67.50
67870;DHT22;54673;52.262;6.830;2022-11-15T16:24:47;19.10;67.90
67870;DHT22;54673;52.262;6.830;2022-11-15T16:27:14;19.20;68.10
67870;DHT22;54673;52.262;6.830;2022-11-15T16:29:40;19.20;69.10
67870;DHT22;54673;52.262;6.830;2022-11-15T16:32:06;19.00;68.30
67870;DHT22;54673;52.262;6.830;2022-11-15T16:34:32;19.20;68.60
67870;DHT22;54673;52.262;6.830;2022-11-15T16:36:57;19.10;68.70
67870;DHT22;54673;52.262;6.830;2022-11-15T16:39:23;18.80;68.70
67870;DHT22;54673;52.262;6.830;2022-11-15T16:41:48;19.00;68.80
67870;DHT22;54673;52.262;6.830;2022-11-15T16:44:14;18.70;68.70
67870;DHT22;54673;52.262;6.830;2022-11-15T16:46:43;18.20;68.80
67870;DHT22;54673;52.262;6.830;2022-11-15T16:49:15;18.70;70.30
67870;DHT22;54673;52.262;6.830;2022-11-15T16:51:48;18.90;70.80
67870;DHT22;54673;52.262;6.830;2022-11-15T16:54:14;18.80;71.00
67870;DHT22;54673;52.262;6.830;2022-11-15T16:56:40;18.50;69.50
67870;DHT22;54673;52.262;6.830;2022-11-15T16:59:06;18.90;70.00
67870;DHT22;54673;52.262;6.830;2022-11-15T17:01:36;18.50;69.70
67870;DHT22;54673;52.262;6.830;2022-11-15T17:04:11;18.50;71.30
67870;DHT22;54673;52.262;6.830;2022-11-15T17:06:42;18.50;70.60
67870;DHT22;54673;52.262;6.830;2022-11-15T17:09:26;18.60;71.90
67870;DHT22;54673;52.262;6.830;2022-11-15T17:11:52;18.40;72.10
67870;DHT22;54673;52.262;6.830;2022-11-15T17:14:17;18.40;71.00
67870;DHT22;54673;52.262;6.830;2022-11-15T17:16:43;18.60;70.90
67870;DHT22;54673;52.262;6.830;2022-11-15T17:19:14;18.30;70.70
67870;DHT22;54673;52.262;6.830;2022-11-15T17:21:40;18.30;72.30
67870;DHT22;54673;52.262;6.830;2022-11-15T17:24:07;18.30;71.40
67870;DHT22;54673;52.262;6.830;2022-11-15T17:26:32;18.30;71.40
67870;DHT22;54673;52.262;6.830;2022-11-15T17:28:58;18.30;71.40
67870;DHT22;54673;52.262;6.830;2022-11-15T17:31:26;18.50;71.60
67870;DHT22;54673;52.262;6.830;2022-11-15T17:33:51;18.20;72.70